createdAt,value
2018-09-09T00:00:11.073Z,12.00
2018-09-09T00:02:39.518Z,12.00
2018-09-09T00:05:08.001Z,12.00
2018-09-09T00:07:36.442Z,11.90
2018-09-09T00:10:05.202Z,11.90
2018-09-09T00:12:33.638Z,11.90
2018-09-09T00:15:02.086Z,11.80
2018-09-09T00:17:30.515Z,11.80
2018-09-09T00:19:58.982Z,11.70
2018-09-09T00:22:27.422Z,11.70
2018-09-09T00:24:55.877Z,11.60
2018-09-09T00:27:24.305Z,11.50
2018-09-09T00:29:52.753Z,11.50
2018-09-09T00:32:21.198Z,11.50
2018-09-09T00:34:49.645Z,11.50
2018-09-09T00:37:18.084Z,11.50
2018-09-09T00:39:46.535Z,11.50
2018-09-09T00:42:14.953Z,11.40
2018-09-09T00:44:43.410Z,11.40
2018-09-09T00:47:11.851Z,11.30
2018-09-09T00:49:45.549Z,11.20
2018-09-09T00:52:19.437Z,11.20
2018-09-09T00:54:47.872Z,11.10
2018-09-09T00:57:16.334Z,11.10
2018-09-09T00:59:44.794Z,11.10
2018-09-09T01:02:13.227Z,11.10
2018-09-09T01:04:41.704Z,11.00
2018-09-09T01:07:10.182Z,10.90
2018-09-09T01:09:38.641Z,11.00
2018-09-09T01:12:07.085Z,10.90
2018-09-09T01:14:35.679Z,10.90
2018-09-09T01:17:04.801Z,10.90
2018-09-09T01:19:33.275Z,10.80
2018-09-09T01:22:01.701Z,10.80
2018-09-09T01:24:30.153Z,10.80
2018-09-09T01:26:58.579Z,10.80
2018-09-09T01:29:27.016Z,10.80
2018-09-09T01:31:55.444Z,10.80
2018-09-09T01:34:23.895Z,10.70
2018-09-09T01:36:52.322Z,10.60
2018-09-09T01:39:20.790Z,10.60
2018-09-09T01:41:49.242Z,10.60
2018-09-09T01:44:17.712Z,10.60
2018-09-09T01:46:46.156Z,10.50
2018-09-09T01:49:14.622Z,10.50
2018-09-09T01:51:43.070Z,10.50
2018-09-09T01:54:11.513Z,10.40
2018-09-09T01:56:39.925Z,10.40
2018-09-09T01:59:08.388Z,10.40
2018-09-09T02:01:36.830Z,10.40
2018-09-09T02:04:05.277Z,10.40
2018-09-09T02:06:33.737Z,10.40
2018-09-09T02:09:02.189Z,10.30
2018-09-09T02:11:30.625Z,10.30
2018-09-09T02:13:59.041Z,10.30
2018-09-09T02:16:27.503Z,10.30
2018-09-09T02:18:55.925Z,10.20
2018-09-09T02:21:24.381Z,10.20
2018-09-09T02:23:53.496Z,10.20
2018-09-09T02:26:21.952Z,10.20
2018-09-09T02:28:50.470Z,10.20
2018-09-09T02:31:18.915Z,10.20
2018-09-09T02:33:47.342Z,10.20
2018-09-09T02:36:15.799Z,10.20
2018-09-09T02:38:44.233Z,10.20
2018-09-09T02:41:12.774Z,10.10
2018-09-09T02:43:41.157Z,10.10
2018-09-09T02:46:09.602Z,10.10
2018-09-09T02:48:38.029Z,10.10
2018-09-09T02:51:06.626Z,10.10
2018-09-09T02:53:35.078Z,10.00
2018-09-09T02:56:07.721Z,10.00
2018-09-09T02:58:36.150Z,10.00
2018-09-09T03:01:04.741Z,10.00
2018-09-09T03:03:33.169Z,9.90
2018-09-09T03:06:01.623Z,9.90
2018-09-09T03:08:30.069Z,9.90
2018-09-09T03:11:03.724Z,9.90
2018-09-09T03:13:32.142Z,9.80
2018-09-09T03:16:01.419Z,9.80
2018-09-09T03:18:29.838Z,9.80
2018-09-09T03:20:58.437Z,9.70
2018-09-09T03:23:26.897Z,9.70
2018-09-09T03:25:55.338Z,9.70
2018-09-09T03:28:23.767Z,9.60
2018-09-09T03:30:52.221Z,9.70
2018-09-09T03:33:20.634Z,9.70
2018-09-09T03:35:49.176Z,9.70
2018-09-09T03:38:17.691Z,9.70
2018-09-09T03:40:46.121Z,9.60
2018-09-09T03:46:12.559Z,9.60
2018-09-09T03:48:40.997Z,9.60
2018-09-09T03:51:09.429Z,9.50
2018-09-09T03:53:37.842Z,9.50
2018-09-09T03:56:06.379Z,9.50
2018-09-09T03:58:34.806Z,9.50
2018-09-09T04:01:03.262Z,9.50
2018-09-09T04:03:31.689Z,9.50
2018-09-09T04:06:00.134Z,9.40
2018-09-09T04:08:28.585Z,9.40
2018-09-09T04:10:57.045Z,9.40
2018-09-09T04:13:25.473Z,9.40
2018-09-09T04:15:53.917Z,9.40
2018-09-09T04:18:22.349Z,9.30
2018-09-09T04:20:50.822Z,9.30
2018-09-09T04:23:19.251Z,9.30
2018-09-09T04:25:47.718Z,9.30
2018-09-09T04:28:16.144Z,9.30
2018-09-09T04:30:44.614Z,9.30
2018-09-09T04:33:13.049Z,9.20
2018-09-09T04:35:41.514Z,9.20
2018-09-09T04:38:09.961Z,9.20
2018-09-09T04:40:38.431Z,9.10
2018-09-09T04:43:06.891Z,9.10
2018-09-09T04:45:35.337Z,9.10
2018-09-09T04:48:03.849Z,9.20
2018-09-09T04:50:32.254Z,9.10
2018-09-09T04:53:00.694Z,9.20
2018-09-09T04:55:29.157Z,9.20
2018-09-09T04:57:57.586Z,9.20
2018-09-09T05:00:26.058Z,9.20
2018-09-09T05:02:54.499Z,9.10
2018-09-09T05:05:22.980Z,9.20
2018-09-09T05:07:51.410Z,9.20
2018-09-09T05:10:19.902Z,9.20
2018-09-09T05:12:48.362Z,9.10
2018-09-09T05:15:16.808Z,9.10
2018-09-09T05:17:45.286Z,9.10
2018-09-09T05:20:13.747Z,9.10
2018-09-09T05:22:42.346Z,9.10
2018-09-09T05:25:11.262Z,9.10
2018-09-09T05:27:39.729Z,9.10
2018-09-09T05:30:08.597Z,9.10
2018-09-09T05:32:37.114Z,9.10
2018-09-09T05:35:05.665Z,9.10
2018-09-09T05:37:34.121Z,9.10
2018-09-09T05:40:02.986Z,9.10
2018-09-09T05:42:31.501Z,9.10
2018-09-09T05:44:59.958Z,9.00
2018-09-09T05:47:28.423Z,9.00
2018-09-09T05:49:56.853Z,9.20
2018-09-09T05:52:25.323Z,9.30
2018-09-09T05:54:53.757Z,9.40
2018-09-09T05:57:22.245Z,9.60
2018-09-09T05:59:50.673Z,9.80
2018-09-09T06:02:19.141Z,10.00
2018-09-09T06:04:47.634Z,10.10
2018-09-09T06:07:16.073Z,10.20
2018-09-09T06:09:44.523Z,10.40
2018-09-09T06:12:12.978Z,10.50
2018-09-09T06:14:41.418Z,10.50
2018-09-09T06:17:09.869Z,10.50
2018-09-09T06:19:38.286Z,10.60
2018-09-09T06:22:06.746Z,10.80
2018-09-09T06:24:35.185Z,10.90
2018-09-09T06:27:03.650Z,11.00
2018-09-09T06:29:32.086Z,11.20
2018-09-09T06:32:00.542Z,11.30
2018-09-09T06:34:28.990Z,11.30
2018-09-09T06:36:57.437Z,11.30
2018-09-09T06:39:25.865Z,11.30
2018-09-09T06:41:54.307Z,11.30
2018-09-09T06:44:22.725Z,11.30
2018-09-09T06:46:51.167Z,11.40
2018-09-09T06:49:19.593Z,11.60
2018-09-09T06:51:48.056Z,11.80
2018-09-09T06:54:16.503Z,11.90
2018-09-09T06:56:44.953Z,12.10
2018-09-09T06:59:13.391Z,12.30
2018-09-09T07:01:41.850Z,12.50
2018-09-09T07:04:10.277Z,12.60
2018-09-09T07:06:38.751Z,12.70
2018-09-09T07:09:08.021Z,12.90
2018-09-09T07:11:36.651Z,13.00
2018-09-09T07:14:04.989Z,13.20
2018-09-09T07:16:33.478Z,13.20
2018-09-09T07:19:02.471Z,13.30
2018-09-09T07:21:31.012Z,13.40
2018-09-09T07:23:59.482Z,13.50
2018-09-09T07:26:28.333Z,13.50
2018-09-09T07:28:56.913Z,13.60
2018-09-09T07:31:25.491Z,13.70
2018-09-09T07:33:53.902Z,13.90
2018-09-09T07:36:22.324Z,14.10
2018-09-09T07:38:50.765Z,14.40
2018-09-09T07:41:19.198Z,14.60
2018-09-09T07:43:47.657Z,14.70
2018-09-09T07:46:16.107Z,14.70
2018-09-09T07:48:44.570Z,15.00
2018-09-09T07:51:13.005Z,15.10
2018-09-09T07:53:41.455Z,15.10
2018-09-09T07:56:09.892Z,14.90
2018-09-09T07:58:38.372Z,14.70
2018-09-09T08:01:06.808Z,14.70
2018-09-09T08:03:35.261Z,14.90
2018-09-09T08:06:03.694Z,15.30
2018-09-09T08:08:32.173Z,15.70
2018-09-09T08:11:00.601Z,16.10
2018-09-09T08:13:29.046Z,16.10
2018-09-09T08:15:57.502Z,16.30
2018-09-09T08:18:25.985Z,16.70
2018-09-09T08:20:54.394Z,17.00
2018-09-09T08:23:22.850Z,17.00
2018-09-09T08:25:51.294Z,17.20
2018-09-09T08:28:19.748Z,17.20
2018-09-09T08:30:48.183Z,17.30
2018-09-09T08:33:16.622Z,17.50
2018-09-09T08:35:45.062Z,17.90
2018-09-09T08:38:13.537Z,18.20
2018-09-09T08:40:41.963Z,18.40
2018-09-09T08:43:10.410Z,18.70
2018-09-09T08:45:39.358Z,18.90
2018-09-09T08:48:07.861Z,19.20
2018-09-09T08:50:36.298Z,19.00
2018-09-09T08:53:04.746Z,19.10
2018-09-09T08:55:33.197Z,19.20
2018-09-09T08:58:01.645Z,19.10
2018-09-09T09:00:30.062Z,19.10
2018-09-09T09:02:58.489Z,19.40
2018-09-09T09:05:26.918Z,19.80
2018-09-09T09:07:55.375Z,20.20
2018-09-09T09:10:23.825Z,20.50
2018-09-09T09:12:52.904Z,20.20
2018-09-09T09:15:21.338Z,20.20
2018-09-09T09:17:49.794Z,20.60
2018-09-09T09:20:18.239Z,20.40
2018-09-09T09:22:46.698Z,20.90
2018-09-09T09:25:15.184Z,21.90
2018-09-09T09:27:43.661Z,21.70
2018-09-09T09:30:12.163Z,21.70
2018-09-09T09:32:44.922Z,22.20
2018-09-09T09:35:13.373Z,23.20
2018-09-09T09:37:41.866Z,22.80
2018-09-09T09:40:10.305Z,23.20
2018-09-09T09:42:38.774Z,23.10
2018-09-09T09:45:07.262Z,23.40
2018-09-09T09:47:35.737Z,24.30
2018-09-09T09:50:04.246Z,25.00
2018-09-09T09:52:32.726Z,25.60
2018-09-09T09:55:01.180Z,24.80
2018-09-09T09:57:29.650Z,24.90
2018-09-09T09:59:58.101Z,25.90
2018-09-09T10:02:26.547Z,25.90
2018-09-09T10:04:55.008Z,26.70
2018-09-09T10:07:23.463Z,26.60
2018-09-09T10:09:51.935Z,25.70
2018-09-09T10:12:20.357Z,24.30
2018-09-09T10:14:48.806Z,24.70
2018-09-09T10:17:17.234Z,24.40
2018-09-09T10:19:45.713Z,24.00
2018-09-09T10:22:14.130Z,24.40
2018-09-09T10:24:42.591Z,24.90
2018-09-09T10:27:11.035Z,24.80
2018-09-09T10:29:39.478Z,25.40
2018-09-09T10:32:07.891Z,25.60
2018-09-09T10:34:36.325Z,25.40
2018-09-09T10:37:04.768Z,24.90
2018-09-09T10:39:33.246Z,24.80
2018-09-09T10:42:01.678Z,26.10
2018-09-09T10:44:30.132Z,27.90
2018-09-09T10:46:58.594Z,27.30
2018-09-09T10:49:27.038Z,27.00
2018-09-09T10:51:55.450Z,27.40
2018-09-09T10:54:23.890Z,27.00
2018-09-09T10:56:52.297Z,27.30
2018-09-09T10:59:20.739Z,28.50
2018-09-09T11:01:49.158Z,29.90
2018-09-09T11:04:17.610Z,29.40
2018-09-09T11:06:46.237Z,29.50
2018-09-09T11:09:14.697Z,27.50
2018-09-09T11:11:43.120Z,27.90
2018-09-09T11:14:11.598Z,29.80
2018-09-09T11:16:40.114Z,30.10
2018-09-09T11:19:08.591Z,29.10
2018-09-09T11:21:37.029Z,28.90
2018-09-09T11:24:05.530Z,29.40
2018-09-09T11:26:33.973Z,30.50
2018-09-09T11:29:02.426Z,30.40
2018-09-09T11:31:30.870Z,29.10
2018-09-09T11:33:59.372Z,27.10
2018-09-09T11:36:27.837Z,28.20
2018-09-09T11:38:56.286Z,29.00
2018-09-09T11:41:24.797Z,29.50
2018-09-09T11:43:53.276Z,28.50
2018-09-09T11:46:21.738Z,27.80
2018-09-09T11:48:50.230Z,28.60
2018-09-09T11:51:18.699Z,29.60
2018-09-09T11:53:47.165Z,29.90
2018-09-09T11:56:15.674Z,29.20
2018-09-09T11:58:44.215Z,28.30
2018-09-09T12:01:12.692Z,29.50
2018-09-09T12:03:41.146Z,28.90
2018-09-09T12:06:09.660Z,29.00
2018-09-09T12:08:38.118Z,29.40
2018-09-09T12:11:06.592Z,29.50
2018-09-09T12:13:35.065Z,30.30
2018-09-09T12:16:03.538Z,29.40
2018-09-09T12:18:31.972Z,29.40
2018-09-09T12:21:00.414Z,29.80
2018-09-09T12:23:28.842Z,31.30
2018-09-09T12:25:57.283Z,32.00
2018-09-09T12:28:25.726Z,31.40
2018-09-09T12:30:54.188Z,30.30
2018-09-09T12:33:22.750Z,29.70
2018-09-09T12:35:51.462Z,28.80
2018-09-09T12:38:19.910Z,28.70
2018-09-09T12:40:48.378Z,29.10
2018-09-09T12:43:22.228Z,30.90
2018-09-09T12:45:56.038Z,32.50
2018-09-09T12:48:29.959Z,31.80
2018-09-09T12:50:58.461Z,31.30
2018-09-09T12:53:26.879Z,31.40
2018-09-09T12:55:55.326Z,30.70
2018-09-09T12:58:23.741Z,29.90
2018-09-09T13:00:52.189Z,30.00
2018-09-09T13:03:20.614Z,30.60
2018-09-09T13:05:49.065Z,30.80
2018-09-09T13:08:17.519Z,30.10
2018-09-09T13:10:46.014Z,30.70
2018-09-09T13:13:16.989Z,30.20
2018-09-09T13:15:45.606Z,31.50
2018-09-09T13:18:14.046Z,30.90
2018-09-09T13:20:42.682Z,32.20
2018-09-09T13:23:11.098Z,30.10
2018-09-09T13:25:39.616Z,30.20
2018-09-09T13:28:08.076Z,30.70
2018-09-09T13:30:36.511Z,31.80
2018-09-09T13:33:04.949Z,32.50
2018-09-09T13:35:33.419Z,34.90
2018-09-09T13:38:01.830Z,36.40
2018-09-09T13:40:30.283Z,36.90
2018-09-09T13:42:58.721Z,36.60
2018-09-09T13:45:27.157Z,35.90
2018-09-09T13:47:55.607Z,33.70
2018-09-09T13:50:24.082Z,32.60
2018-09-09T13:52:52.530Z,31.90
2018-09-09T13:55:20.983Z,31.90
2018-09-09T13:57:49.440Z,32.60
2018-09-09T14:00:17.869Z,34.20
2018-09-09T14:02:46.318Z,34.40
2018-09-09T14:05:14.849Z,35.60
2018-09-09T14:07:43.337Z,32.80
2018-09-09T14:10:11.785Z,32.20
2018-09-09T14:12:40.234Z,30.60
2018-09-09T14:15:08.843Z,29.90
2018-09-09T14:17:37.293Z,29.30
2018-09-09T14:20:05.770Z,30.50
2018-09-09T14:22:34.257Z,30.40
2018-09-09T14:25:02.912Z,28.80
2018-09-09T14:27:31.389Z,28.90
2018-09-09T14:29:59.818Z,30.40
2018-09-09T14:32:28.270Z,29.50
2018-09-09T14:34:56.691Z,28.50
2018-09-09T14:37:25.145Z,28.10
2018-09-09T14:39:53.569Z,28.10
2018-09-09T14:42:22.029Z,28.10
2018-09-09T14:44:50.465Z,28.40
2018-09-09T14:47:18.906Z,29.40
2018-09-09T14:49:47.344Z,28.60
2018-09-09T14:52:15.798Z,27.90
2018-09-09T14:54:44.237Z,28.30
2018-09-09T14:57:12.692Z,28.90
2018-09-09T14:59:41.186Z,29.70
2018-09-09T15:02:09.680Z,29.70
2018-09-09T15:04:38.274Z,29.60
2018-09-09T15:07:06.826Z,28.90
2018-09-09T15:09:35.300Z,28.20
2018-09-09T15:12:03.821Z,27.90
2018-09-09T15:14:32.285Z,27.50
2018-09-09T15:17:00.739Z,27.20
2018-09-09T15:19:29.182Z,27.50
2018-09-09T15:21:57.638Z,27.50
2018-09-09T15:24:26.108Z,27.50
2018-09-09T15:26:54.602Z,27.10
2018-09-09T15:29:23.073Z,26.50
2018-09-09T15:31:51.521Z,26.00
2018-09-09T15:34:19.989Z,25.70
2018-09-09T15:36:48.450Z,25.70
2018-09-09T15:39:16.903Z,25.40
2018-09-09T15:41:45.364Z,25.20
2018-09-09T15:44:13.809Z,25.00
2018-09-09T15:46:42.282Z,24.90
2018-09-09T15:49:10.729Z,24.80
2018-09-09T15:51:39.186Z,24.60
2018-09-09T15:54:07.653Z,24.70
2018-09-09T15:56:36.105Z,24.70
2018-09-09T15:59:04.555Z,24.70
2018-09-09T16:01:33.018Z,24.50
2018-09-09T16:04:01.467Z,24.50
2018-09-09T16:06:29.922Z,24.50
2018-09-09T16:08:58.385Z,24.30
2018-09-09T16:11:26.854Z,24.30
2018-09-09T16:13:55.281Z,24.20
2018-09-09T16:16:23.688Z,24.20
2018-09-09T16:18:52.204Z,24.20
2018-09-09T16:21:20.586Z,24.10
2018-09-09T16:23:49.070Z,24.00
2018-09-09T16:26:17.494Z,23.90
2018-09-09T16:28:45.947Z,23.80
2018-09-09T16:31:14.396Z,23.70
2018-09-09T16:33:42.837Z,23.60
2018-09-09T16:36:11.250Z,23.50
2018-09-09T16:38:39.709Z,23.50
2018-09-09T16:41:08.169Z,23.40
2018-09-09T16:43:36.618Z,23.30
2018-09-09T16:46:05.073Z,23.20
2018-09-09T16:48:33.537Z,23.00
2018-09-09T16:51:02.021Z,22.90
2018-09-09T16:53:30.527Z,22.90
2018-09-09T16:55:58.958Z,22.70
2018-09-09T16:58:27.406Z,22.70
2018-09-09T17:00:55.833Z,22.60
2018-09-09T17:03:24.273Z,22.50
2018-09-09T17:05:52.702Z,22.30
2018-09-09T17:08:21.152Z,22.20
2018-09-09T17:10:49.638Z,22.10
2018-09-09T17:13:18.108Z,22.00
2018-09-09T17:15:46.548Z,21.90
2018-09-09T17:18:15.029Z,21.80
2018-09-09T17:20:43.471Z,21.60
2018-09-09T17:23:11.933Z,21.50
2018-09-09T17:25:40.430Z,21.40
2018-09-09T17:28:08.920Z,21.30
2018-09-09T17:30:37.373Z,21.10
2018-09-09T17:33:05.989Z,21.00
2018-09-09T17:35:34.474Z,20.90
2018-09-09T17:38:02.922Z,20.80
2018-09-09T17:40:31.395Z,20.70
2018-09-09T17:42:59.958Z,20.60
2018-09-09T17:45:28.449Z,20.40
2018-09-09T17:47:56.917Z,20.20
2018-09-09T17:50:25.373Z,20.10
2018-09-09T17:52:53.853Z,20.00
2018-09-09T17:55:22.276Z,19.80
2018-09-09T17:57:50.729Z,19.80
2018-09-09T18:00:19.210Z,19.60
2018-09-09T18:02:47.651Z,19.50
2018-09-09T18:05:16.114Z,19.40
2018-09-09T18:07:44.556Z,19.30
2018-09-09T18:10:13.074Z,19.20
2018-09-09T18:12:41.514Z,19.00
2018-09-09T18:15:09.989Z,18.90
2018-09-09T18:17:38.428Z,18.80
2018-09-09T18:20:06.917Z,18.70
2018-09-09T18:22:35.340Z,18.60
2018-09-09T18:25:03.829Z,18.50
2018-09-09T18:27:32.262Z,18.30
2018-09-09T18:30:00.713Z,18.20
2018-09-09T18:32:29.138Z,18.10
2018-09-09T18:34:57.619Z,18.00
2018-09-09T18:37:26.000Z,17.90
2018-09-09T18:39:54.445Z,17.90
2018-09-09T18:42:22.872Z,17.80
2018-09-09T18:44:51.364Z,17.70
2018-09-09T18:47:19.753Z,17.60
2018-09-09T18:49:48.198Z,17.50
2018-09-09T18:52:16.625Z,17.40
2018-09-09T18:54:45.073Z,17.30
2018-09-09T18:57:13.497Z,17.20
2018-09-09T18:59:41.973Z,17.10
2018-09-09T19:02:10.389Z,17.00
2018-09-09T19:04:38.812Z,16.90
2018-09-09T19:07:07.274Z,16.80
2018-09-09T19:09:35.730Z,16.80
2018-09-09T19:12:04.210Z,16.70
2018-09-09T19:14:32.658Z,16.70
2018-09-09T19:17:01.161Z,16.60
2018-09-09T19:19:29.593Z,16.50
2018-09-09T19:21:58.174Z,16.40
2018-09-09T19:24:26.528Z,16.40
2018-09-09T19:26:54.983Z,16.30
2018-09-09T19:29:23.427Z,16.20
2018-09-09T19:31:51.918Z,16.10
2018-09-09T19:34:20.388Z,16.00
2018-09-09T19:36:48.865Z,15.90
2018-09-09T19:39:17.299Z,15.80
2018-09-09T19:41:45.771Z,15.70
2018-09-09T19:44:14.361Z,15.70
2018-09-09T19:46:42.723Z,15.70
2018-09-09T19:49:11.186Z,15.70
2018-09-09T19:51:39.669Z,15.60
2018-09-09T19:54:08.128Z,15.60
2018-09-09T19:56:36.613Z,15.50
2018-09-09T19:59:05.102Z,15.50
2018-09-09T20:01:33.590Z,15.40
2018-09-09T20:04:02.054Z,15.30
2018-09-09T20:06:30.516Z,15.30
2018-09-09T20:08:58.986Z,15.30
2018-09-09T20:11:27.451Z,15.30
2018-09-09T20:13:55.958Z,15.20
2018-09-09T20:16:24.425Z,15.10
2018-09-09T20:18:52.884Z,15.00
2018-09-09T20:21:21.354Z,15.00
2018-09-09T20:23:49.790Z,14.90
2018-09-09T20:26:18.245Z,14.90
2018-09-09T20:28:46.681Z,14.80
2018-09-09T20:31:15.149Z,14.80
2018-09-09T20:33:43.593Z,14.70
2018-09-09T20:36:12.057Z,14.70
2018-09-09T20:38:40.526Z,14.60
2018-09-09T20:41:08.961Z,14.60
2018-09-09T20:43:37.518Z,14.60
2018-09-09T20:46:06.068Z,14.50
2018-09-09T20:48:34.524Z,14.60
2018-09-09T20:51:02.993Z,14.60
2018-09-09T20:53:31.439Z,14.50
2018-09-09T20:55:59.913Z,14.40
2018-09-09T20:58:28.341Z,14.30
2018-09-09T21:00:56.811Z,14.10
2018-09-09T21:03:25.250Z,14.10
2018-09-09T21:05:53.733Z,14.00
2018-09-09T21:08:22.161Z,14.00
2018-09-09T21:10:50.679Z,13.90
2018-09-09T21:13:19.095Z,13.90
2018-09-09T21:15:47.573Z,13.90
2018-09-09T21:18:16.020Z,13.80
2018-09-09T21:20:44.486Z,13.70
2018-09-09T21:23:12.926Z,13.70
2018-09-09T21:25:41.357Z,13.70
2018-09-09T21:28:09.845Z,13.60
2018-09-09T21:30:38.269Z,13.60
2018-09-09T21:33:06.962Z,13.60
2018-09-09T21:35:35.389Z,13.60
2018-09-09T21:38:03.858Z,13.60
2018-09-09T21:40:32.321Z,13.50
2018-09-09T21:43:00.774Z,13.50
2018-09-09T21:45:29.212Z,13.50
2018-09-09T21:47:57.673Z,13.40
2018-09-09T21:50:26.111Z,13.40
2018-09-09T21:52:54.601Z,13.30
2018-09-09T21:55:23.043Z,13.20
2018-09-09T21:57:51.502Z,13.10
2018-09-09T22:00:19.937Z,13.00
2018-09-09T22:02:48.393Z,12.90
2018-09-09T22:05:16.822Z,12.80
2018-09-09T22:07:45.318Z,12.80
2018-09-09T22:10:13.778Z,12.90
2018-09-09T22:12:42.209Z,12.90
2018-09-09T22:15:10.628Z,12.90
2018-09-09T22:17:39.094Z,12.80
2018-09-09T22:20:07.527Z,12.80
2018-09-09T22:22:35.962Z,12.70
2018-09-09T22:25:04.430Z,12.70
2018-09-09T22:27:32.886Z,12.80
2018-09-09T22:30:01.302Z,12.80
2018-09-09T22:32:29.726Z,12.70
2018-09-09T22:34:58.154Z,12.70
2018-09-09T22:37:26.599Z,12.60
2018-09-09T22:39:55.024Z,12.60
2018-09-09T22:42:23.453Z,12.60
2018-09-09T22:44:51.850Z,12.60
2018-09-09T22:47:20.285Z,12.60
2018-09-09T22:49:48.694Z,12.50
2018-09-09T22:52:17.136Z,12.50
2018-09-09T22:54:45.549Z,12.50
2018-09-09T22:59:47.738Z,12.40
2018-09-09T23:02:16.194Z,12.30
2018-09-09T23:04:44.605Z,12.30
2018-09-09T23:07:13.041Z,12.20
2018-09-09T23:09:41.529Z,12.20
2018-09-09T23:12:10.001Z,12.30
2018-09-09T23:14:38.452Z,12.30
2018-09-09T23:17:06.945Z,12.30
2018-09-09T23:19:35.411Z,12.20
2018-09-09T23:22:03.893Z,12.20
2018-09-09T23:24:32.325Z,12.20
2018-09-09T23:27:00.818Z,12.10
2018-09-09T23:29:29.262Z,12.10
2018-09-09T23:31:57.726Z,12.10
2018-09-09T23:34:26.188Z,12.00
2018-09-09T23:36:54.650Z,12.00
2018-09-09T23:39:23.125Z,12.00
2018-09-09T23:41:51.610Z,12.00
2018-09-09T23:44:20.082Z,11.90
2018-09-09T23:46:48.554Z,11.90
2018-09-09T23:49:17.026Z,11.80
2018-09-09T23:51:45.484Z,11.80
2018-09-09T23:54:13.955Z,11.80
2018-09-09T23:56:42.396Z,11.80
2018-09-09T23:59:10.956Z,11.70
